createdAt,value
2022-10-22T00:01:07.143Z,98452.03
2022-10-22T00:03:34.061Z,98449.47
2022-10-22T00:06:00.658Z,98448.47
2022-10-22T00:08:27.373Z,98452.78
2022-10-22T00:10:53.954Z,98453.69
2022-10-22T00:13:20.892Z,98458.13
2022-10-22T00:15:47.564Z,98450.38
2022-10-22T00:18:14.241Z,98455.59
2022-10-22T00:20:40.794Z,98468.47
2022-10-22T00:23:07.525Z,98459.00
2022-10-22T00:25:35.925Z,98452.97
2022-10-22T00:28:03.331Z,98453.03
2022-10-22T00:30:29.949Z,98449.75
2022-10-22T00:32:56.471Z,98449.75
2022-10-22T00:35:22.993Z,98445.38
2022-10-22T00:37:49.535Z,98437.72
2022-10-22T00:40:16.093Z,98436.91
2022-10-22T00:42:43.053Z,98428.38
2022-10-22T00:45:09.801Z,98423.22
2022-10-22T00:47:57.252Z,98425.75
2022-10-22T00:50:29.067Z,98424.09
2022-10-22T00:52:57.576Z,98419.63
2022-10-22T00:55:26.732Z,98410.97
2022-10-22T00:57:56.139Z,98404.00
2022-10-22T01:00:23.597Z,98395.06
2022-10-22T01:02:51.563Z,98396.97
2022-10-22T01:05:18.339Z,98386.34
2022-10-22T01:07:49.345Z,98384.63
2022-10-22T01:10:36.640Z,98383.13
2022-10-22T01:13:24.425Z,98384.91
2022-10-22T01:16:10.701Z,98385.06
2022-10-22T01:18:41.340Z,98392.63
2022-10-22T01:21:15.374Z,98397.75
2022-10-22T01:24:26.110Z,98412.47
2022-10-22T01:27:10.609Z,98410.19
2022-10-22T01:29:42.525Z,98410.31
2022-10-22T01:32:14.454Z,98415.44
2022-10-22T01:34:44.363Z,98413.69
2022-10-22T01:37:14.003Z,98407.19
2022-10-22T01:39:44.234Z,98411.00
2022-10-22T01:42:12.871Z,98397.91
2022-10-22T01:44:39.563Z,98391.16
2022-10-22T01:47:11.463Z,98400.00
2022-10-22T01:50:05.955Z,98383.75
2022-10-22T01:52:56.040Z,98384.66
2022-10-22T01:55:32.657Z,98400.63
2022-10-22T01:58:10.341Z,98413.56
2022-10-22T02:00:39.975Z,98416.06
2022-10-22T02:03:13.942Z,98417.03
2022-10-22T02:05:49.650Z,98409.31
2022-10-22T02:08:29.770Z,98398.16
2022-10-22T02:10:58.450Z,98410.38
2022-10-22T02:13:29.043Z,98412.94
2022-10-22T02:15:58.149Z,98407.91
2022-10-22T02:18:28.097Z,98406.31
2022-10-22T02:20:54.898Z,98405.59
2022-10-22T02:23:22.183Z,98396.13
2022-10-22T02:25:56.290Z,98399.56
2022-10-22T02:28:32.538Z,98399.56
2022-10-22T02:31:08.479Z,98405.47
2022-10-22T02:33:41.164Z,98392.34
2022-10-22T02:36:08.721Z,98385.47
2022-10-22T02:38:37.103Z,98387.09
2022-10-22T02:41:04.309Z,98386.94
2022-10-22T02:43:30.844Z,98397.16
2022-10-22T02:45:57.561Z,98388.69
2022-10-22T02:48:24.131Z,98375.22
2022-10-22T02:50:50.781Z,98370.38
2022-10-22T02:53:17.316Z,98365.25
2022-10-22T02:55:43.848Z,98360.41
2022-10-22T02:58:11.067Z,98353.41
2022-10-22T03:00:37.639Z,98344.53
2022-10-22T03:03:04.339Z,98347.84
2022-10-22T03:05:30.929Z,98353.09
2022-10-22T03:07:57.445Z,98353.78
2022-10-22T03:10:24.021Z,98355.31
2022-10-22T03:12:50.546Z,98350.91
2022-10-22T03:15:17.267Z,98356.13
2022-10-22T03:17:43.868Z,98349.44
2022-10-22T03:20:10.902Z,98352.81
2022-10-22T03:22:40.837Z,98340.06
2022-10-22T03:25:12.390Z,98336.34
2022-10-22T03:27:40.785Z,98352.03
2022-10-22T03:30:08.206Z,98342.75
2022-10-22T03:32:34.778Z,98341.84
2022-10-22T03:35:01.351Z,98325.47
2022-10-22T03:37:28.077Z,98317.66
2022-10-22T03:39:55.458Z,98313.22
2022-10-22T03:42:22.734Z,98318.38
2022-10-22T03:44:49.420Z,98323.41
2022-10-22T03:47:15.972Z,98330.09
2022-10-22T03:49:42.497Z,98328.38
2022-10-22T03:52:14.565Z,98339.84
2022-10-22T03:54:42.227Z,98343.22
2022-10-22T03:57:09.560Z,98341.72
2022-10-22T03:59:42.509Z,98354.34
2022-10-22T04:02:10.090Z,98367.06
2022-10-22T04:04:37.705Z,98364.50
2022-10-22T04:07:05.780Z,98355.94
2022-10-22T04:09:33.232Z,98349.28
2022-10-22T04:12:00.048Z,98356.16
2022-10-22T04:14:26.831Z,98347.66
2022-10-22T04:16:53.470Z,98344.25
2022-10-22T04:19:20.027Z,98351.13
2022-10-22T04:21:46.551Z,98344.25
2022-10-22T04:24:13.198Z,98345.28
2022-10-22T04:26:39.778Z,98347.91
2022-10-22T04:29:07.415Z,98337.91
2022-10-22T04:31:35.234Z,98320.25
2022-10-22T04:34:02.101Z,98329.13
2022-10-22T04:36:29.536Z,98330.94
2022-10-22T04:39:00.827Z,98334.19
2022-10-22T04:41:29.812Z,98343.38
2022-10-22T04:43:57.637Z,98352.88
2022-10-22T04:46:26.559Z,98350.34
2022-10-22T04:48:53.489Z,98346.78
2022-10-22T04:51:22.558Z,98340.94
2022-10-22T04:53:49.771Z,98346.25
2022-10-22T04:56:28.930Z,98342.94
2022-10-22T04:59:01.269Z,98336.19
2022-10-22T05:01:36.934Z,98342.50
2022-10-22T05:04:08.241Z,98352.50
2022-10-22T05:06:36.702Z,98336.00
2022-10-22T05:09:09.339Z,98343.09
2022-10-22T05:11:38.121Z,98342.91
2022-10-22T05:14:06.414Z,98340.38
2022-10-22T05:16:34.302Z,98343.88
2022-10-22T05:19:02.069Z,98338.47
2022-10-22T05:21:29.055Z,98340.06
2022-10-22T05:23:56.943Z,98341.72
2022-10-22T05:26:25.114Z,98340.75
2022-10-22T05:28:52.308Z,98340.72
2022-10-22T05:31:19.852Z,98342.31
2022-10-22T05:33:47.751Z,98338.97
2022-10-22T05:36:18.387Z,98332.81
2022-10-22T05:38:45.651Z,98333.59
2022-10-22T05:41:15.041Z,98337.94
2022-10-22T05:43:41.639Z,98334.34
2022-10-22T05:46:13.434Z,98349.75
2022-10-22T05:48:40.595Z,98364.25
2022-10-22T05:51:12.193Z,98364.44
2022-10-22T05:53:41.139Z,98363.13
2022-10-22T05:56:15.889Z,98371.97
2022-10-22T05:58:44.622Z,98372.84
2022-10-22T06:01:17.328Z,98356.47
2022-10-22T06:03:45.345Z,98350.94
2022-10-22T06:06:30.846Z,98353.94
2022-10-22T06:09:07.066Z,98369.06
2022-10-22T06:11:35.220Z,98382.53
2022-10-22T06:14:02.219Z,98383.91
2022-10-22T06:16:32.578Z,98381.75
2022-10-22T06:19:02.140Z,98375.31
2022-10-22T06:21:29.677Z,98363.88
2022-10-22T06:23:57.137Z,98359.97
2022-10-22T06:26:23.828Z,98357.25
2022-10-22T06:28:50.354Z,98372.31
2022-10-22T06:31:16.937Z,98375.81
2022-10-22T06:33:43.524Z,98382.97
2022-10-22T06:36:12.761Z,98382.84
2022-10-22T06:38:39.806Z,98386.06
2022-10-22T06:41:09.743Z,98379.47
2022-10-22T06:43:36.991Z,98360.22
2022-10-22T06:46:07.460Z,98369.44
2022-10-22T06:48:36.043Z,98383.09
2022-10-22T06:51:05.388Z,98393.75
2022-10-22T06:53:32.503Z,98409.00
2022-10-22T06:55:59.007Z,98404.63
2022-10-22T06:58:25.592Z,98390.91
2022-10-22T07:01:02.094Z,98387.50
2022-10-22T07:03:28.794Z,98377.06
2022-10-22T07:05:55.397Z,98382.81
2022-10-22T07:08:21.993Z,98385.00
2022-10-22T07:10:48.519Z,98385.78
2022-10-22T07:13:15.975Z,98392.50
2022-10-22T07:15:42.575Z,98393.06
2022-10-22T07:18:09.103Z,98393.94
2022-10-22T07:20:35.831Z,98410.84
2022-10-22T07:23:02.382Z,98411.41
2022-10-22T07:25:28.906Z,98416.53
2022-10-22T07:27:55.453Z,98408.44
2022-10-22T07:30:21.999Z,98411.13
2022-10-22T07:32:48.516Z,98425.47
2022-10-22T07:35:15.211Z,98430.03
2022-10-22T07:37:42.358Z,98426.84
2022-10-22T07:40:09.561Z,98412.25
2022-10-22T07:42:36.061Z,98419.38
2022-10-22T07:45:02.920Z,98428.25
2022-10-22T07:47:29.481Z,98439.72
2022-10-22T07:49:56.078Z,98454.72
2022-10-22T07:52:22.706Z,98462.25
2022-10-22T07:54:49.284Z,98449.44
2022-10-22T07:57:15.790Z,98447.03
2022-10-22T07:59:42.356Z,98442.19
2022-10-22T08:02:11.346Z,98439.59
2022-10-22T08:04:38.155Z,98441.31
2022-10-22T08:07:05.392Z,98436.88
2022-10-22T08:09:31.972Z,98441.22
2022-10-22T08:11:58.553Z,98444.84
2022-10-22T08:14:25.105Z,98450.81
2022-10-22T08:16:51.891Z,98460.25
2022-10-22T08:19:20.794Z,98453.06
2022-10-22T08:21:48.607Z,98453.69
2022-10-22T08:24:15.124Z,98451.13
2022-10-22T08:26:42.579Z,98448.13
2022-10-22T08:29:09.516Z,98437.94
2022-10-22T08:31:36.114Z,98416.78
2022-10-22T08:34:02.671Z,98423.88
2022-10-22T08:36:29.229Z,98444.25
2022-10-22T08:38:55.746Z,98448.03
2022-10-22T08:41:23.909Z,98453.00
2022-10-22T08:44:32.786Z,98453.59
2022-10-22T08:47:22.389Z,98455.97
2022-10-22T08:49:49.681Z,98460.91
2022-10-22T08:52:18.879Z,98440.22
2022-10-22T08:55:00.079Z,98422.63
2022-10-22T08:57:41.530Z,98431.81
2022-10-22T09:00:46.124Z,98440.53
2022-10-22T09:03:26.979Z,98431.03
2022-10-22T09:06:05.675Z,98425.91
2022-10-22T09:08:32.560Z,98426.50
2022-10-22T09:11:06.876Z,98434.56
2022-10-22T09:13:33.497Z,98438.50
2022-10-22T09:16:11.305Z,98442.72
2022-10-22T09:18:59.505Z,98459.84
2022-10-22T09:21:55.003Z,98471.13
2022-10-22T09:24:38.790Z,98471.34
2022-10-22T09:27:26.853Z,98473.25
2022-10-22T09:29:53.457Z,98468.06
2022-10-22T09:32:20.290Z,98482.06
2022-10-22T09:34:49.008Z,98490.88
2022-10-22T09:37:22.865Z,98481.47
2022-10-22T09:39:52.413Z,98481.47
2022-10-22T09:42:20.576Z,98490.03
2022-10-22T09:44:59.401Z,98499.69
2022-10-22T09:48:00.659Z,98496.28
2022-10-22T09:50:28.328Z,98499.81
2022-10-22T09:52:59.649Z,98498.88
2022-10-22T09:55:26.809Z,98503.41
2022-10-22T09:57:58.349Z,98498.47
2022-10-22T10:00:26.120Z,98488.03
2022-10-22T10:03:00.326Z,98494.06
2022-10-22T10:05:33.628Z,98492.53
2022-10-22T10:08:12.360Z,98488.44
2022-10-22T10:10:48.036Z,98495.09
2022-10-22T10:13:33.236Z,98485.50
2022-10-22T10:16:02.722Z,98492.16
2022-10-22T10:18:55.364Z,98492.03
2022-10-22T10:21:35.049Z,98492.91
2022-10-22T10:24:21.886Z,98491.09
2022-10-22T10:26:54.500Z,98491.09
2022-10-22T10:29:46.884Z,98493.81
2022-10-22T10:32:26.408Z,98488.56
2022-10-22T10:34:52.928Z,98495.50
2022-10-22T10:37:24.902Z,98486.28
2022-10-22T10:40:19.083Z,98486.50
2022-10-22T10:43:32.686Z,98486.69
2022-10-22T10:46:02.304Z,98479.03
2022-10-22T10:48:51.179Z,98488.69
2022-10-22T10:51:53.447Z,98479.97
2022-10-22T10:57:13.504Z,98472.13
2022-10-22T10:59:45.118Z,98472.13
2022-10-22T11:02:52.477Z,98476.44
2022-10-22T11:05:21.782Z,98469.59
2022-10-22T11:07:56.130Z,98480.22
2022-10-22T11:10:36.585Z,98476.84
2022-10-22T11:13:14.237Z,98480.22
2022-10-22T11:15:44.996Z,98479.44
2022-10-22T11:18:16.235Z,98481.34
2022-10-22T11:21:01.291Z,98484.00
2022-10-22T11:23:55.025Z,98495.28
2022-10-22T11:26:30.900Z,98505.72
2022-10-22T11:29:01.014Z,98498.06
2022-10-22T11:31:30.519Z,98496.34
2022-10-22T11:34:41.816Z,98492.97
2022-10-22T11:37:11.915Z,98505.31
2022-10-22T11:39:43.671Z,98493.28
2022-10-22T11:42:16.310Z,98486.09
2022-10-22T11:45:03.999Z,98486.94
2022-10-22T11:47:51.584Z,98481.00
2022-10-22T11:50:25.798Z,98477.56
2022-10-22T11:53:08.493Z,98474.06
2022-10-22T11:55:46.516Z,98476.69
2022-10-22T11:58:28.503Z,98488.75
2022-10-22T12:00:59.056Z,98484.47
2022-10-22T12:03:28.651Z,98483.66
2022-10-22T12:06:12.011Z,98481.94
2022-10-22T12:08:46.146Z,98472.44
2022-10-22T12:11:35.522Z,98473.22
2022-10-22T12:14:29.286Z,98463.72
2022-10-22T12:16:58.028Z,98456.19
2022-10-22T12:19:46.459Z,98460.81
2022-10-22T12:22:21.079Z,98464.16
2022-10-22T12:24:50.051Z,98464.94
2022-10-22T12:27:29.497Z,98467.47
2022-10-22T12:30:01.124Z,98464.88
2022-10-22T12:32:41.579Z,98477.00
2022-10-22T12:35:15.895Z,98473.53
2022-10-22T12:37:42.586Z,98467.69
2022-10-22T12:40:36.685Z,98459.16
2022-10-22T12:43:15.554Z,98453.09
2022-10-22T12:45:45.430Z,98454.91
2022-10-22T12:48:17.318Z,98443.69
2022-10-22T12:50:48.919Z,98440.41
2022-10-22T12:53:29.674Z,98431.75
2022-10-22T12:56:01.712Z,98430.16
2022-10-22T12:58:39.972Z,98437.00
2022-10-22T13:01:06.911Z,98440.34
2022-10-22T13:03:35.549Z,98447.19
2022-10-22T13:06:20.465Z,98437.13
2022-10-22T13:09:03.667Z,98427.03
2022-10-22T13:12:04.831Z,98424.66
2022-10-22T13:14:38.150Z,98426.97
2022-10-22T13:17:15.247Z,98434.72
2022-10-22T13:19:50.861Z,98432.19
2022-10-22T13:22:37.127Z,98437.59
2022-10-22T13:25:14.700Z,98436.53
2022-10-22T13:27:48.518Z,98442.44
2022-10-22T13:30:26.603Z,98442.56
2022-10-22T13:32:56.536Z,98434.78
2022-10-22T13:35:30.214Z,98440.88
2022-10-22T13:37:56.826Z,98443.56
2022-10-22T13:40:23.450Z,98443.63
2022-10-22T13:42:50.046Z,98452.25
2022-10-22T13:45:17.461Z,98450.44
2022-10-22T13:47:51.884Z,98453.91
2022-10-22T13:50:20.879Z,98441.09
2022-10-22T13:52:52.884Z,98442.78
2022-10-22T13:55:19.453Z,98450.63
2022-10-22T13:57:46.360Z,98449.75
2022-10-22T14:00:15.879Z,98447.22
2022-10-22T14:02:44.133Z,98448.09
2022-10-22T14:05:11.316Z,98441.31
2022-10-22T14:07:39.176Z,98434.44
2022-10-22T14:10:19.541Z,98436.13
2022-10-22T14:12:52.309Z,98435.22
2022-10-22T14:15:24.056Z,98445.53
2022-10-22T14:17:55.102Z,98439.66
2022-10-22T14:20:25.643Z,98435.50
2022-10-22T14:22:52.275Z,98438.88
2022-10-22T14:25:22.041Z,98452.72
2022-10-22T14:27:48.621Z,98450.06
2022-10-22T14:30:25.716Z,98453.78
2022-10-22T14:32:52.608Z,98447.03
2022-10-22T14:35:22.607Z,98447.03
2022-10-22T14:37:49.611Z,98435.06
2022-10-22T14:40:19.660Z,98443.75
2022-10-22T14:42:48.145Z,98444.66
2022-10-22T14:45:23.670Z,98442.94
2022-10-22T14:47:51.753Z,98439.41
2022-10-22T14:50:18.982Z,98427.69
2022-10-22T14:52:45.621Z,98421.47
2022-10-22T14:55:15.032Z,98433.44
2022-10-22T14:57:42.291Z,98427.34
2022-10-22T15:00:12.565Z,98431.84
2022-10-22T15:02:39.357Z,98439.53
2022-10-22T15:05:07.006Z,98435.56
2022-10-22T15:07:33.663Z,98430.44
2022-10-22T15:10:00.331Z,98435.81
2022-10-22T15:12:27.088Z,98451.91
2022-10-22T15:14:53.631Z,98455.31
2022-10-22T15:17:20.224Z,98451.78
2022-10-22T15:19:46.864Z,98454.31
2022-10-22T15:22:14.132Z,98454.44
2022-10-22T15:24:44.659Z,98455.34
2022-10-22T15:27:14.313Z,98449.38
2022-10-22T15:29:41.973Z,98447.59
2022-10-22T15:32:10.537Z,98463.88
2022-10-22T15:34:40.126Z,98457.09
2022-10-22T15:37:10.974Z,98464.03
2022-10-22T15:39:42.139Z,98470.03
2022-10-22T15:42:09.931Z,98461.56
2022-10-22T15:44:36.711Z,98459.72
2022-10-22T15:47:04.447Z,98458.91
2022-10-22T15:49:31.179Z,98471.84
2022-10-22T15:51:57.737Z,98475.53
2022-10-22T15:54:29.001Z,98484.78
2022-10-22T15:57:08.438Z,98486.41
2022-10-22T15:59:36.039Z,98483.25
2022-10-22T16:02:03.001Z,98489.06
2022-10-22T16:04:29.665Z,98489.91
2022-10-22T16:06:57.982Z,98495.00
2022-10-22T16:09:27.279Z,98492.75
2022-10-22T16:11:55.618Z,98504.75
2022-10-22T16:14:25.019Z,98504.22
2022-10-22T16:16:54.306Z,98509.81
2022-10-22T16:19:23.092Z,98524.16
2022-10-22T16:21:51.462Z,98532.16
2022-10-22T16:24:18.757Z,98530.47
2022-10-22T16:26:47.258Z,98540.66
2022-10-22T16:29:14.499Z,98547.50
2022-10-22T16:31:43.687Z,98547.28
2022-10-22T16:34:10.835Z,98555.91
2022-10-22T16:36:38.418Z,98561.13
2022-10-22T16:39:06.598Z,98575.66
2022-10-22T16:41:36.558Z,98577.53
2022-10-22T16:44:06.191Z,98582.81
2022-10-22T16:46:33.545Z,98583.56
2022-10-22T16:49:00.547Z,98576.63
2022-10-22T16:51:28.493Z,98582.56
2022-10-22T16:53:57.058Z,98580.28
2022-10-22T16:56:25.279Z,98576.88
2022-10-22T16:58:54.743Z,98558.53
2022-10-22T17:01:23.378Z,98566.78
2022-10-22T17:03:50.135Z,98561.34
2022-10-22T17:06:17.041Z,98572.47
2022-10-22T17:08:43.648Z,98574.94
2022-10-22T17:11:18.917Z,98580.88
2022-10-22T17:13:49.055Z,98573.97
2022-10-22T17:16:17.816Z,98579.06
2022-10-22T17:21:18.819Z,98589.19
2022-10-22T17:23:46.764Z,98589.94
2022-10-22T17:26:17.299Z,98582.13
2022-10-22T17:28:44.606Z,98590.72
2022-10-22T17:31:20.668Z,98591.47
2022-10-22T17:33:49.044Z,98594.91
2022-10-22T17:36:17.487Z,98594.56
2022-10-22T17:38:47.802Z,98593.22
2022-10-22T17:41:17.900Z,98597.22
2022-10-22T17:46:30.336Z,98613.50
2022-10-22T17:48:59.194Z,98623.84
2022-10-22T17:51:27.112Z,98624.06
2022-10-22T17:53:53.910Z,98618.94
2022-10-22T17:56:22.899Z,98630.59
2022-10-22T17:58:50.117Z,98624.31
2022-10-22T18:01:21.243Z,98632.78
2022-10-22T18:03:48.042Z,98626.84
2022-10-22T18:06:15.048Z,98627.69
2022-10-22T18:08:41.727Z,98635.50
2022-10-22T18:11:10.313Z,98635.97
2022-10-22T18:13:36.931Z,98635.63
2022-10-22T18:16:04.690Z,98644.00
2022-10-22T18:18:31.620Z,98648.25
2022-10-22T18:20:58.480Z,98652.50
2022-10-22T18:23:25.018Z,98638.66
2022-10-22T18:25:51.665Z,98634.50
2022-10-22T18:28:19.404Z,98630.28
2022-10-22T18:30:48.548Z,98628.56
2022-10-22T18:33:17.771Z,98630.13
2022-10-22T18:35:46.231Z,98626.63
2022-10-22T18:38:12.850Z,98621.47
2022-10-22T18:40:48.651Z,98630.84
2022-10-22T18:43:16.569Z,98624.84
2022-10-22T18:45:44.261Z,98624.84
2022-10-22T18:48:13.177Z,98620.47
2022-10-22T18:50:39.879Z,98620.38
2022-10-22T18:53:06.562Z,98625.47
2022-10-22T18:55:34.213Z,98622.88
2022-10-22T18:58:00.710Z,98625.44
2022-10-22T19:00:27.422Z,98628.84
2022-10-22T19:02:54.953Z,98623.72
2022-10-22T19:05:21.619Z,98631.44
2022-10-22T19:07:50.037Z,98639.22
2022-10-22T19:10:17.432Z,98643.59
2022-10-22T19:12:44.030Z,98640.97
2022-10-22T19:15:11.024Z,98657.22
2022-10-22T19:17:37.637Z,98658.09
2022-10-22T19:20:04.801Z,98660.63
2022-10-22T19:22:32.242Z,98658.94
2022-10-22T19:25:01.310Z,98658.19
2022-10-22T19:27:27.877Z,98666.88
2022-10-22T19:29:54.441Z,98669.41
2022-10-22T19:32:21.071Z,98671.28
2022-10-22T19:34:47.648Z,98680.63
2022-10-22T19:37:14.291Z,98685.66
2022-10-22T19:39:41.501Z,98679.66
2022-10-22T19:42:08.092Z,98686.53
2022-10-22T19:44:34.715Z,98693.44
2022-10-22T19:47:01.420Z,98697.75
2022-10-22T19:49:29.173Z,98694.25
2022-10-22T19:51:55.705Z,98699.38
2022-10-22T19:54:22.417Z,98701.97
2022-10-22T19:56:50.317Z,98699.47
2022-10-22T19:59:17.975Z,98704.56
2022-10-22T20:01:44.478Z,98700.28
2022-10-22T20:04:15.380Z,98704.50
2022-10-22T20:06:43.121Z,98710.53
2022-10-22T20:09:11.267Z,98713.97
2022-10-22T20:11:37.933Z,98715.81
2022-10-22T20:14:04.549Z,98714.03
2022-10-22T20:16:31.707Z,98712.31
2022-10-22T20:19:03.854Z,98719.38
2022-10-22T20:21:30.761Z,98721.16
2022-10-22T20:23:57.579Z,98717.75
2022-10-22T20:26:27.888Z,98712.06
2022-10-22T20:28:56.397Z,98721.59
2022-10-22T20:31:25.083Z,98725.22
2022-10-22T20:33:51.697Z,98711.47
2022-10-22T20:36:23.216Z,98716.53
2022-10-22T20:38:50.902Z,98724.41
2022-10-22T20:41:22.669Z,98720.13
2022-10-22T20:43:51.077Z,98720.91
2022-10-22T20:46:31.907Z,98723.63
2022-10-22T20:49:07.180Z,98722.69
2022-10-22T20:51:35.925Z,98728.63
2022-10-22T20:54:02.858Z,98726.72
2022-10-22T20:56:29.531Z,98732.56
2022-10-22T20:59:04.762Z,98725.78
2022-10-22T21:01:33.937Z,98734.69
2022-10-22T21:04:06.463Z,98727.53
2022-10-22T21:06:34.262Z,98723.91
2022-10-22T21:09:00.878Z,98727.31
2022-10-22T21:11:27.456Z,98729.75
2022-10-22T21:13:54.053Z,98734.84
2022-10-22T21:16:20.645Z,98734.69
2022-10-22T21:18:47.565Z,98748.16
2022-10-22T21:21:17.023Z,98737.84
2022-10-22T21:23:43.935Z,98749.22
2022-10-22T21:26:10.669Z,98750.84
2022-10-22T21:28:37.943Z,98756.75
2022-10-22T21:31:06.994Z,98754.31
2022-10-22T21:33:38.097Z,98757.72
2022-10-22T21:36:06.167Z,98755.94
2022-10-22T21:38:33.410Z,98762.38
2022-10-22T21:41:04.631Z,98764.75
2022-10-22T21:43:31.212Z,98761.41
2022-10-22T21:46:09.029Z,98759.50
2022-10-22T21:48:36.951Z,98768.00
2022-10-22T21:51:18.643Z,98764.47
2022-10-22T21:53:46.052Z,98764.00
2022-10-22T21:56:27.452Z,98769.84
2022-10-22T21:58:54.253Z,98766.38
2022-10-22T22:01:21.438Z,98765.47
2022-10-22T22:03:49.968Z,98761.00
2022-10-22T22:06:21.247Z,98756.59
2022-10-22T22:08:49.530Z,98770.34
2022-10-22T22:11:19.078Z,98780.72
2022-10-22T22:13:45.672Z,98785.78
2022-10-22T22:16:14.896Z,98786.81
2022-10-22T22:18:42.207Z,98790.31
2022-10-22T22:21:15.557Z,98793.69
2022-10-22T22:23:44.909Z,98797.06
2022-10-22T22:26:12.844Z,98787.56
2022-10-22T22:28:39.692Z,98791.22
2022-10-22T22:31:23.565Z,98784.25
2022-10-22T22:33:50.318Z,98796.34
2022-10-22T22:36:17.572Z,98808.38
2022-10-22T22:38:44.144Z,98814.75
2022-10-22T22:41:10.692Z,98820.03
2022-10-22T22:43:37.765Z,98826.72
2022-10-22T22:46:11.571Z,98821.53
2022-10-22T22:48:38.405Z,98820.03
2022-10-22T22:51:06.541Z,98823.25
2022-10-22T22:53:34.527Z,98812.88
2022-10-22T22:56:14.661Z,98826.59
2022-10-22T22:58:41.831Z,98819.19
2022-10-22T23:01:35.980Z,98823.09
2022-10-22T23:04:11.843Z,98810.16
2022-10-22T23:06:38.793Z,98819.41
2022-10-22T23:09:08.163Z,98814.94
2022-10-22T23:11:35.310Z,98813.22
2022-10-22T23:14:04.348Z,98821.75
2022-10-22T23:16:33.511Z,98814.75
2022-10-22T23:19:01.158Z,98815.53
2022-10-22T23:21:33.427Z,98808.56
2022-10-22T23:24:02.530Z,98801.59
2022-10-22T23:26:32.024Z,98799.75
2022-10-22T23:29:02.753Z,98794.56
2022-10-22T23:31:29.870Z,98799.94
2022-10-22T23:33:56.611Z,98807.63
2022-10-22T23:36:23.187Z,98806.75
2022-10-22T23:38:50.349Z,98798.94
2022-10-22T23:41:17.193Z,98808.34
2022-10-22T23:43:43.942Z,98802.19
2022-10-22T23:46:13.051Z,98803.88
2022-10-22T23:48:40.319Z,98803.06
2022-10-22T23:51:10.352Z,98792.75
2022-10-22T23:53:37.367Z,98803.97
2022-10-22T23:56:09.019Z,98816.59
2022-10-22T23:58:36.605Z,98820.91
